createdAt,value
2022-08-01T00:01:01.180Z,79.85
2022-08-01T00:04:04.800Z,79.90
2022-08-01T00:07:07.707Z,79.89
2022-08-01T00:10:14.464Z,79.87
2022-08-01T00:13:17.428Z,79.90
2022-08-01T00:16:23.602Z,79.84
2022-08-01T00:19:26.502Z,79.86
2022-08-01T00:22:29.566Z,79.89
2022-08-01T00:25:34.013Z,79.80
2022-08-01T00:28:37.606Z,79.72
2022-08-01T00:31:40.469Z,79.72
2022-08-01T00:34:43.416Z,79.77
2022-08-01T00:37:46.308Z,79.84
2022-08-01T00:40:49.747Z,79.78
2022-08-01T00:43:52.662Z,79.76
2022-08-01T00:46:55.502Z,79.83
2022-08-01T00:49:58.350Z,79.86
2022-08-01T00:53:02.064Z,79.78
2022-08-01T00:56:05.456Z,79.73
2022-08-01T00:59:10.423Z,79.73
2022-08-01T01:02:14.622Z,79.72
2022-08-01T01:05:18.933Z,79.75
2022-08-01T01:08:28.107Z,79.66
2022-08-01T01:11:45.272Z,79.55
2022-08-01T01:15:06.263Z,79.44
2022-08-01T01:18:18.323Z,79.39
2022-08-01T01:21:24.794Z,79.34
2022-08-01T01:25:00.301Z,79.25
2022-08-01T01:28:34.608Z,79.18
2022-08-01T01:31:47.175Z,79.04
2022-08-01T01:34:54.552Z,79.05
2022-08-01T01:38:03.116Z,79.04
2022-08-01T01:41:07.314Z,79.12
2022-08-01T01:44:11.593Z,79.12
2022-08-01T01:47:16.278Z,79.02
2022-08-01T01:50:22.121Z,78.98
2022-08-01T01:53:28.053Z,78.88
2022-08-01T01:56:32.082Z,78.79
2022-08-01T01:59:38.693Z,78.58
2022-08-01T02:02:43.447Z,78.52
2022-08-01T02:05:48.151Z,78.55
2022-08-01T02:08:53.193Z,78.63
2022-08-01T02:12:08.660Z,78.67
2022-08-01T02:15:14.284Z,78.65
2022-08-01T02:18:17.207Z,78.61
2022-08-01T02:21:45.175Z,78.46
2022-08-01T02:24:55.937Z,78.46
2022-08-01T02:28:14.569Z,78.43
2022-08-01T02:31:21.608Z,78.29
2022-08-01T02:34:29.265Z,78.28
2022-08-01T02:37:35.662Z,78.18
2022-08-01T02:40:42.791Z,78.15
2022-08-01T02:43:53.247Z,78.26
2022-08-01T02:47:05.803Z,78.23
2022-08-01T02:50:13.453Z,78.22
2022-08-01T02:53:21.874Z,78.26
2022-08-01T02:56:35.821Z,78.27
2022-08-01T02:59:41.257Z,78.21
2022-08-01T03:02:46.230Z,78.19
2022-08-01T03:05:50.001Z,78.15
2022-08-01T03:08:54.689Z,78.10
2022-08-01T03:12:01.933Z,78.06
2022-08-01T03:15:06.919Z,78.10
2022-08-01T03:18:15.272Z,78.17
2022-08-01T03:21:21.702Z,78.19
2022-08-01T03:24:27.171Z,78.23
2022-08-01T03:27:30.669Z,78.29
2022-08-01T03:30:34.879Z,78.27
2022-08-01T03:33:37.740Z,78.39
2022-08-01T03:36:50.702Z,78.44
2022-08-01T03:39:59.955Z,78.49
2022-08-01T03:43:17.194Z,78.50
2022-08-01T03:46:30.002Z,78.50
2022-08-01T03:49:39.180Z,78.47
2022-08-01T03:52:46.213Z,78.43
2022-08-01T03:55:50.817Z,78.55
2022-08-01T03:58:54.642Z,78.57
2022-08-01T04:01:58.746Z,78.63
2022-08-01T04:05:02.860Z,78.71
2022-08-01T04:08:05.831Z,78.80
2022-08-01T04:11:10.353Z,78.93
2022-08-01T04:14:13.339Z,78.97
2022-08-01T04:17:17.478Z,79.04
2022-08-01T04:20:23.014Z,79.26
2022-08-01T04:23:28.596Z,79.39
2022-08-01T04:26:35.871Z,79.55
2022-08-01T04:29:39.612Z,79.64
2022-08-01T04:32:46.074Z,79.75
2022-08-01T04:36:02.814Z,79.88
2022-08-01T04:39:07.820Z,80.04
2022-08-01T04:42:12.201Z,80.22
2022-08-01T04:45:15.099Z,80.43
2022-08-01T04:48:20.427Z,80.51
2022-08-01T04:51:25.933Z,80.65
2022-08-01T04:54:30.773Z,80.89
2022-08-01T04:57:40.792Z,81.19
2022-08-01T05:00:43.841Z,81.60
2022-08-01T05:03:46.684Z,81.99
2022-08-01T05:06:49.548Z,82.39
2022-08-01T05:09:52.473Z,82.69
2022-08-01T05:12:55.484Z,82.89
2022-08-01T05:15:58.424Z,83.02
2022-08-01T05:19:03.621Z,83.20
2022-08-01T05:22:08.274Z,83.40
2022-08-01T05:25:12.247Z,83.61
2022-08-01T05:28:19.056Z,83.76
2022-08-01T05:31:22.232Z,83.79
2022-08-01T05:34:25.290Z,83.88
2022-08-01T05:37:28.226Z,84.09
2022-08-01T05:40:31.115Z,84.23
2022-08-01T05:43:34.315Z,84.29
2022-08-01T05:46:37.642Z,84.38
2022-08-01T05:49:40.532Z,84.22
2022-08-01T05:52:43.537Z,83.90
2022-08-01T05:55:46.489Z,83.97
2022-08-01T05:58:51.496Z,83.91
2022-08-01T06:01:54.650Z,83.71
2022-08-01T06:04:58.121Z,83.37
2022-08-01T06:08:01.251Z,83.28
2022-08-01T06:11:06.233Z,83.26
2022-08-01T06:14:09.277Z,83.14
2022-08-01T06:17:12.274Z,83.19
2022-08-01T06:20:15.514Z,82.88
2022-08-01T06:23:32.616Z,82.67
2022-08-01T06:26:38.261Z,83.01
2022-08-01T06:29:41.297Z,82.91
2022-08-01T06:32:56.947Z,82.28
2022-08-01T06:35:59.972Z,82.02
2022-08-01T06:39:04.506Z,82.09
2022-08-01T06:42:07.917Z,81.80
2022-08-01T06:45:12.623Z,81.31
2022-08-01T06:48:15.658Z,81.01
2022-08-01T06:51:20.923Z,80.73
2022-08-01T06:54:24.633Z,79.96
2022-08-01T06:57:27.901Z,79.58
2022-08-01T07:00:32.599Z,79.47
2022-08-01T07:03:53.656Z,78.77
2022-08-01T07:06:58.176Z,77.93
2022-08-01T07:10:01.598Z,77.79
2022-08-01T07:13:04.586Z,77.25
2022-08-01T07:16:07.483Z,76.99
2022-08-01T07:19:10.389Z,76.49
2022-08-01T07:22:15.053Z,75.94
2022-08-01T07:25:26.438Z,75.56
2022-08-01T07:28:30.144Z,75.05
2022-08-01T07:31:32.984Z,75.20
2022-08-01T07:34:35.887Z,74.01
2022-08-01T07:37:42.165Z,73.99
2022-08-01T07:40:51.830Z,74.31
2022-08-01T07:43:58.024Z,73.51
2022-08-01T07:47:05.348Z,72.06
2022-08-01T07:50:08.842Z,72.95
2022-08-01T07:53:12.382Z,72.94
2022-08-01T07:56:15.798Z,73.37
2022-08-01T07:59:26.207Z,73.82
2022-08-01T08:02:29.525Z,73.97
2022-08-01T08:05:58.371Z,74.43
2022-08-01T08:09:00.408Z,74.64
2022-08-01T08:12:03.791Z,74.47
2022-08-01T08:15:07.742Z,73.94
2022-08-01T08:18:10.731Z,73.16
2022-08-01T08:21:13.749Z,72.63
2022-08-01T08:24:25.918Z,72.05
2022-08-01T08:27:29.997Z,71.87
2022-08-01T08:30:33.139Z,72.22
2022-08-01T08:33:36.281Z,72.52
2022-08-01T08:36:39.536Z,72.75
2022-08-01T08:39:51.063Z,72.61
2022-08-01T08:42:54.327Z,73.34
2022-08-01T08:45:59.267Z,72.91
2022-08-01T08:49:06.492Z,73.26
2022-08-01T08:52:10.856Z,73.06
2022-08-01T08:55:15.713Z,72.46
2022-08-01T08:58:20.557Z,72.71
2022-08-01T09:01:24.374Z,73.56
2022-08-01T09:04:27.679Z,74.08
2022-08-01T09:07:30.824Z,74.15
2022-08-01T09:10:33.756Z,73.54
2022-08-01T09:13:38.205Z,74.06
2022-08-01T09:16:49.145Z,73.57
2022-08-01T09:19:54.845Z,73.96
2022-08-01T09:22:57.941Z,74.06
2022-08-01T09:26:00.882Z,74.15
2022-08-01T09:29:10.401Z,73.12
2022-08-01T09:32:16.122Z,73.45
2022-08-01T09:35:30.182Z,74.06
2022-08-01T09:38:34.677Z,74.56
2022-08-01T09:41:40.327Z,74.58
2022-08-01T09:44:54.843Z,75.23
2022-08-01T09:48:10.600Z,75.14
2022-08-01T09:51:58.585Z,73.94
2022-08-01T09:54:54.286Z,72.64
2022-08-01T09:58:01.824Z,73.77
2022-08-01T10:01:06.036Z,73.91
2022-08-01T10:04:15.734Z,73.80
2022-08-01T10:07:21.526Z,72.30
2022-08-01T10:11:12.179Z,72.43
2022-08-01T10:14:17.709Z,72.84
2022-08-01T10:17:22.784Z,72.22
2022-08-01T10:20:30.938Z,70.60
2022-08-01T10:23:39.747Z,67.82
2022-08-01T10:26:45.297Z,68.61
2022-08-01T10:30:05.302Z,68.88
2022-08-01T10:33:19.911Z,68.48
2022-08-01T10:36:40.950Z,68.83
2022-08-01T10:39:46.897Z,70.18
2022-08-01T10:42:51.522Z,69.53
2022-08-01T10:45:56.314Z,70.13
2022-08-01T10:49:16.913Z,69.38
2022-08-01T10:52:20.987Z,68.85
2022-08-01T10:55:26.078Z,69.42
2022-08-01T10:58:30.526Z,69.23
2022-08-01T11:01:37.563Z,69.23
2022-08-01T11:04:46.702Z,68.64
2022-08-01T11:07:56.181Z,69.32
2022-08-01T11:11:02.866Z,69.62
2022-08-01T11:14:13.636Z,69.82
2022-08-01T11:17:42.041Z,69.86
2022-08-01T11:21:57.956Z,70.02
2022-08-01T11:24:55.449Z,70.22
2022-08-01T11:28:15.312Z,70.03
2022-08-01T11:31:22.806Z,69.63
2022-08-01T11:34:57.695Z,68.90
2022-08-01T11:38:31.059Z,69.96
2022-08-01T11:41:37.678Z,70.34
2022-08-01T11:44:52.447Z,69.84
2022-08-01T11:47:57.005Z,69.62
2022-08-01T11:51:02.234Z,68.32
2022-08-01T11:54:05.656Z,68.51
2022-08-01T11:57:22.955Z,67.92
2022-08-01T12:00:27.111Z,67.37
2022-08-01T12:03:34.567Z,67.10
2022-08-01T12:06:38.137Z,66.82
2022-08-01T12:09:45.710Z,66.68
2022-08-01T12:12:54.517Z,66.30
2022-08-01T12:15:59.186Z,66.40
2022-08-01T12:19:02.979Z,66.92
2022-08-01T12:22:14.847Z,65.48
2022-08-01T12:25:18.931Z,65.69
2022-08-01T12:28:22.349Z,65.38
2022-08-01T12:31:35.537Z,65.01
2022-08-01T12:34:41.997Z,64.91
2022-08-01T12:37:50.594Z,64.08
2022-08-01T12:40:54.928Z,63.79
2022-08-01T12:43:58.144Z,64.35
2022-08-01T12:47:02.499Z,64.16
2022-08-01T12:50:12.850Z,64.52
2022-08-01T12:53:17.105Z,63.00
2022-08-01T12:56:33.124Z,63.26
2022-08-01T12:59:36.791Z,62.32
2022-08-01T13:02:42.801Z,62.00
2022-08-01T13:05:53.392Z,62.51
2022-08-01T13:09:05.722Z,62.50
2022-08-01T13:12:12.775Z,62.36
2022-08-01T13:15:20.605Z,62.76
2022-08-01T13:18:26.379Z,62.74
2022-08-01T13:21:52.497Z,63.31
2022-08-01T13:24:53.802Z,62.44
2022-08-01T13:28:16.063Z,63.24
2022-08-01T13:31:18.917Z,63.26
2022-08-01T13:34:35.123Z,63.93
2022-08-01T13:37:39.551Z,63.63
2022-08-01T13:40:42.558Z,64.35
2022-08-01T13:43:57.539Z,63.78
2022-08-01T13:47:14.889Z,62.93
2022-08-01T13:50:19.898Z,63.85
2022-08-01T13:53:22.974Z,63.20
2022-08-01T13:56:28.620Z,62.62
2022-08-01T13:59:31.637Z,62.42
2022-08-01T14:02:35.280Z,64.08
2022-08-01T14:05:38.741Z,63.07
2022-08-01T14:08:46.038Z,63.25
2022-08-01T14:11:50.424Z,62.91
2022-08-01T14:14:54.483Z,63.36
2022-08-01T14:17:57.429Z,64.22
2022-08-01T14:21:05.376Z,65.00
2022-08-01T14:24:09.481Z,64.76
2022-08-01T14:27:12.663Z,63.19
2022-08-01T14:30:15.732Z,62.57
2022-08-01T14:33:18.598Z,61.00
2022-08-01T14:36:30.282Z,62.08
2022-08-01T14:39:34.309Z,61.86
2022-08-01T14:42:39.354Z,61.83
2022-08-01T14:45:42.287Z,60.92
2022-08-01T14:48:45.150Z,59.69
2022-08-01T14:51:48.069Z,59.77
2022-08-01T14:54:50.962Z,60.13
2022-08-01T14:57:54.823Z,60.38
2022-08-01T15:00:59.250Z,60.27
2022-08-01T15:04:04.543Z,60.11
2022-08-01T15:07:07.628Z,60.65
2022-08-01T15:10:10.965Z,60.87
2022-08-01T15:13:13.932Z,61.33
2022-08-01T15:16:16.781Z,61.97
2022-08-01T15:19:19.714Z,61.81
2022-08-01T15:22:24.097Z,61.64
2022-08-01T15:25:41.458Z,62.19
2022-08-01T15:28:45.134Z,62.14
2022-08-01T15:31:48.034Z,63.60
2022-08-01T15:34:51.011Z,63.31
2022-08-01T15:37:53.926Z,62.87
2022-08-01T15:40:56.878Z,62.73
2022-08-01T15:43:59.732Z,62.95
2022-08-01T15:47:03.687Z,62.81
2022-08-01T15:50:08.030Z,63.28
2022-08-01T15:53:11.064Z,63.38
2022-08-01T15:56:14.663Z,64.19
2022-08-01T15:59:18.113Z,64.16
2022-08-01T16:02:21.243Z,64.68
2022-08-01T16:05:24.381Z,64.74
2022-08-01T16:08:27.289Z,65.19
2022-08-01T16:11:30.289Z,65.80
2022-08-01T16:14:33.271Z,65.92
2022-08-01T16:17:40.497Z,66.32
2022-08-01T16:20:47.626Z,66.91
2022-08-01T16:23:52.032Z,67.02
2022-08-01T16:26:55.785Z,67.61
2022-08-01T16:29:58.760Z,67.38
2022-08-01T16:33:06.331Z,68.27
2022-08-01T16:36:24.888Z,69.09
2022-08-01T16:39:30.509Z,69.03
2022-08-01T16:42:36.970Z,69.02
2022-08-01T16:45:42.642Z,69.10
2022-08-01T16:48:46.050Z,68.82
2022-08-01T16:51:49.016Z,68.98
2022-08-01T16:54:51.972Z,68.79
2022-08-01T16:57:57.770Z,69.14
2022-08-01T17:02:01.298Z,69.36
2022-08-01T17:04:24.065Z,69.36
2022-08-01T17:07:27.775Z,68.80
2022-08-01T17:10:31.732Z,68.51
2022-08-01T17:13:34.910Z,68.73
2022-08-01T17:16:38.389Z,69.17
2022-08-01T17:19:41.484Z,69.25
2022-08-01T17:22:44.503Z,69.26
2022-08-01T17:25:47.697Z,69.61
2022-08-01T17:28:50.684Z,69.47
2022-08-01T17:31:54.419Z,69.24
2022-08-01T17:34:57.328Z,69.16
2022-08-01T17:38:00.577Z,69.21
2022-08-01T17:41:03.512Z,69.21
2022-08-01T17:44:07.536Z,69.30
2022-08-01T17:47:10.761Z,69.43
2022-08-01T17:50:13.993Z,69.59
2022-08-01T17:53:20.922Z,69.68
2022-08-01T17:56:26.200Z,69.68
2022-08-01T17:59:29.397Z,70.91
2022-08-01T18:02:32.356Z,71.33
2022-08-01T18:05:37.471Z,71.62
2022-08-01T18:08:42.007Z,71.74
2022-08-01T18:11:45.697Z,71.80
2022-08-01T18:14:48.930Z,71.85
2022-08-01T18:17:52.372Z,72.07
2022-08-01T18:20:55.289Z,72.14
2022-08-01T18:24:02.999Z,72.50
2022-08-01T18:27:06.424Z,72.69
2022-08-01T18:30:10.162Z,72.85
2022-08-01T18:33:13.065Z,72.86
2022-08-01T18:36:31.999Z,73.03
2022-08-01T18:39:36.881Z,73.25
2022-08-01T18:42:42.205Z,73.36
2022-08-01T18:45:45.100Z,73.77
2022-08-01T18:48:48.673Z,74.04
2022-08-01T18:51:52.016Z,74.27
2022-08-01T18:54:55.440Z,74.46
2022-08-01T18:57:58.417Z,74.50
2022-08-01T19:01:01.513Z,74.67
2022-08-01T19:04:04.615Z,74.80
2022-08-01T19:07:08.086Z,74.88
2022-08-01T19:10:12.361Z,74.99
2022-08-01T19:13:16.776Z,75.10
2022-08-01T19:16:19.693Z,75.25
2022-08-01T19:19:27.806Z,75.36
2022-08-01T19:22:31.130Z,75.35
2022-08-01T19:25:34.403Z,75.37
2022-08-01T19:29:02.121Z,75.41
2022-08-01T19:32:07.043Z,75.58
2022-08-01T19:35:12.943Z,75.57
2022-08-01T19:38:16.738Z,75.49
2022-08-01T19:41:19.700Z,75.39
2022-08-01T19:44:24.939Z,75.32
2022-08-01T19:47:51.637Z,75.49
2022-08-01T19:50:52.623Z,75.65
2022-08-01T19:53:58.612Z,75.88
2022-08-01T19:57:06.127Z,76.13
2022-08-01T20:00:10.578Z,76.18
2022-08-01T20:03:28.388Z,76.32
2022-08-01T20:06:33.246Z,76.45
2022-08-01T20:09:39.233Z,76.57
2022-08-01T20:12:42.889Z,76.62
2022-08-01T20:15:46.781Z,76.78
2022-08-01T20:18:50.229Z,76.91
2022-08-01T20:22:02.766Z,77.14
2022-08-01T20:25:09.985Z,77.12
2022-08-01T20:28:13.531Z,77.07
2022-08-01T20:31:19.620Z,77.05
2022-08-01T20:34:24.531Z,76.80
2022-08-01T20:38:01.251Z,76.66
2022-08-01T20:40:53.280Z,76.67
2022-08-01T20:43:57.635Z,76.54
2022-08-01T20:47:05.248Z,76.55
2022-08-01T20:50:53.261Z,76.78
2022-08-01T20:53:52.684Z,77.00
2022-08-01T20:56:59.249Z,77.12
2022-08-01T21:00:06.075Z,77.26
2022-08-01T21:03:15.763Z,77.36
2022-08-01T21:06:26.167Z,77.51
2022-08-01T21:09:39.776Z,77.69
2022-08-01T21:12:59.078Z,77.64
2022-08-01T21:16:22.186Z,77.70
2022-08-01T21:19:27.943Z,77.92
2022-08-01T21:22:41.615Z,77.98
2022-08-01T21:25:44.623Z,77.99
2022-08-01T21:28:54.530Z,77.94
2022-08-01T21:32:13.199Z,77.99
2022-08-01T21:35:19.142Z,78.03
2022-08-01T21:38:24.205Z,78.17
2022-08-01T21:42:03.489Z,78.19
2022-08-01T21:44:54.602Z,78.29
2022-08-01T21:47:59.183Z,78.39
2022-08-01T21:51:14.808Z,78.42
2022-08-01T21:54:45.964Z,78.50
2022-08-01T21:57:48.863Z,78.51
2022-08-01T22:00:57.559Z,78.48
2022-08-01T22:04:03.031Z,78.52
2022-08-01T22:07:10.653Z,78.54
2022-08-01T22:10:16.582Z,78.65
2022-08-01T22:13:19.479Z,78.61
2022-08-01T22:16:23.618Z,78.60
2022-08-01T22:19:32.409Z,78.58
2022-08-01T22:22:52.232Z,78.59
2022-08-01T22:25:56.031Z,78.54
2022-08-01T22:29:00.286Z,78.68
2022-08-01T22:32:03.666Z,78.78
2022-08-01T22:35:12.272Z,78.85
2022-08-01T22:38:18.062Z,78.92
2022-08-01T22:41:26.222Z,78.93
2022-08-01T22:44:40.459Z,78.91
2022-08-01T22:48:00.107Z,78.85
2022-08-01T22:51:09.321Z,78.84
2022-08-01T22:54:14.523Z,78.81
2022-08-01T22:57:55.242Z,78.76
2022-08-01T23:01:01.481Z,78.72
2022-08-01T23:04:05.843Z,78.69
2022-08-01T23:07:10.850Z,78.72
2022-08-01T23:10:13.886Z,78.74
2022-08-01T23:13:17.661Z,78.75
2022-08-01T23:16:21.873Z,78.78
2022-08-01T23:19:26.193Z,78.79
2022-08-01T23:22:32.387Z,78.80
2022-08-01T23:25:37.454Z,78.81
2022-08-01T23:28:41.357Z,78.79
2022-08-01T23:32:03.163Z,78.86
2022-08-01T23:35:07.444Z,78.90
2022-08-01T23:38:11.010Z,78.89
2022-08-01T23:41:16.697Z,78.84
2022-08-01T23:44:19.530Z,78.86
2022-08-01T23:47:23.558Z,78.93
2022-08-01T23:50:27.238Z,78.96
2022-08-01T23:53:31.906Z,78.95
2022-08-01T23:56:34.941Z,79.06
2022-08-01T23:59:53.629Z,79.07
